Wetterdaten: Donnerstag, 06.01.2011
Datum Zeit Temp. A. Feuchte A. Luftdruck Regen Wind Richtung Richtung Sonnenschein UV Solar Windben
06.01.2011 00:00 -0,9 C 84 % 1001,5 hPa 0,0 mm 3,2 km/h (1 Bft) S 180 0 min 0 UV-I 0 W/m 16,1 km/h (3 Bft)
06.01.2011 00:10 -0,8 C 84 % 1001,6 hPa 0,0 mm 1,6 km/h (1 Bft) O-SO 112 0 min 0 UV-I 0 W/m 6,4 km/h (2 Bft)
06.01.2011 00:20 -0,6 C 84 % 1001,3 hPa 0,0 mm 3,2 km/h (1 Bft) O-SO 112 0 min 0 UV-I 0 W/m 14,5 km/h (3 Bft)
06.01.2011 00:30 -0,4 C 85 % 1001,2 hPa 0,0 mm 3,2 km/h (1 Bft) O-SO 112 0 min 0 UV-I 0 W/m 11,3 km/h (2 Bft)
06.01.2011 00:40 -0,2 C 85 % 1001,0 hPa 0,0 mm 4,8 km/h (1 Bft) O-SO 112 0 min 0 UV-I 0 W/m 11,3 km/h (2 Bft)
06.01.2011 00:50 0,1 C 86 % 1000,7 hPa 0,0 mm 4,8 km/h (1 Bft) O-SO 112 0 min 0 UV-I 0 W/m 14,5 km/h (3 Bft)
06.01.2011 01:00 0,3 C 86 % 1000,4 hPa 0,0 mm 6,4 km/h (2 Bft) O-SO 112 0 min 0 UV-I 0 W/m 17,7 km/h (3 Bft)
06.01.2011 01:10 0,4 C 86 % 1000,5 hPa 0,0 mm 3,2 km/h (1 Bft) O-SO 112 0 min 0 UV-I 0 W/m 11,3 km/h (2 Bft)
06.01.2011 01:20 0,6 C 85 % 1000,1 hPa 0,0 mm 1,6 km/h (1 Bft) SO 135 0 min 0 UV-I 0 W/m 8,0 km/h (2 Bft)
06.01.2011 01:30 0,6 C 85 % 999,9 hPa 0,0 mm 1,6 km/h (1 Bft) O-SO 112 0 min 0 UV-I 0 W/m 6,4 km/h (2 Bft)
06.01.2011 01:40 0,7 C 86 % 999,7 hPa 0,0 mm 1,6 km/h (1 Bft) S 180 0 min 0 UV-I 0 W/m 8,0 km/h (2 Bft)
06.01.2011 01:50 0,8 C 86 % 999,7 hPa 0,0 mm 1,6 km/h (1 Bft) S-SO 157 0 min 0 UV-I 0 W/m 8,0 km/h (2 Bft)
06.01.2011 02:00 0,8 C 86 % 999,5 hPa 0,0 mm 1,6 km/h (1 Bft) S 180 0 min 0 UV-I 0 W/m 8,0 km/h (2 Bft)
06.01.2011 02:10 0,8 C 86 % 999,3 hPa 0,0 mm 3,2 km/h (1 Bft) S-SO 157 0 min 0 UV-I 0 W/m 16,1 km/h (3 Bft)
06.01.2011 02:20 0,9 C 86 % 999,2 hPa 0,0 mm 3,2 km/h (1 Bft) S-SO 157 0 min 0 UV-I 0 W/m 12,9 km/h (3 Bft)
06.01.2011 02:30 1,1 C 86 % 998,8 hPa 0,0 mm 4,8 km/h (1 Bft) SO 135 0 min 0 UV-I 0 W/m 16,1 km/h (3 Bft)
06.01.2011 02:40 1,2 C 86 % 998,6 hPa 0,0 mm 3,2 km/h (1 Bft) S-SO 157 0 min 0 UV-I 0 W/m 11,3 km/h (2 Bft)
06.01.2011 02:50 1,4 C 86 % 998,4 hPa 0,0 mm 3,2 km/h (1 Bft) S 180 0 min 0 UV-I 0 W/m 16,1 km/h (3 Bft)
06.01.2011 03:00 1,4 C 86 % 998,1 hPa 0,0 mm 4,8 km/h (1 Bft) S 180 0 min 0 UV-I 0 W/m 14,5 km/h (3 Bft)
06.01.2011 03:10 1,5 C 86 % 997,8 hPa 0,0 mm 3,2 km/h (1 Bft) SO 135 0 min 0 UV-I 0 W/m 14,5 km/h (3 Bft)
06.01.2011 03:20 1,6 C 86 % 997,7 hPa 0,3 mm 3,2 km/h (1 Bft) SO 135 0 min 0 UV-I 0 W/m 16,1 km/h (3 Bft)
06.01.2011 03:30 1,7 C 86 % 997,6 hPa 0,0 mm 1,6 km/h (1 Bft) S-SW 202 0 min 0 UV-I 0 W/m 9,7 km/h (2 Bft)
06.01.2011 03:40 1,7 C 86 % 997,8 hPa 0,3 mm 1,6 km/h (1 Bft) S-SW 202 0 min 0 UV-I 0 W/m 8,0 km/h (2 Bft)
06.01.2011 03:50 1,8 C 87 % 997,6 hPa 0,0 mm 3,2 km/h (1 Bft) SO 135 0 min 0 UV-I 0 W/m 19,3 km/h (3 Bft)
06.01.2011 04:00 1,8 C 87 % 997,7 hPa 0,3 mm 1,6 km/h (1 Bft) SO 135 0 min 0 UV-I 0 W/m 8,0 km/h (2 Bft)
06.01.2011 04:10 1,8 C 87 % 997,5 hPa 0,0 mm 3,2 km/h (1 Bft) SO 135 0 min 0 UV-I 0 W/m 8,0 km/h (2 Bft)
06.01.2011 04:20 1,8 C 87 % 997,4 hPa 0,0 mm 3,2 km/h (1 Bft) O-SO 112 0 min 0 UV-I 0 W/m 8,0 km/h (2 Bft)
06.01.2011 04:30 1,8 C 87 % 997,3 hPa 0,3 mm 3,2 km/h (1 Bft) O-SO 112 0 min 0 UV-I 0 W/m 6,4 km/h (2 Bft)
06.01.2011 04:40 1,8 C 88 % 997,3 hPa 0,3 mm 3,2 km/h (1 Bft) O 90 0 min 0 UV-I 0 W/m 8,0 km/h (2 Bft)
06.01.2011 04:50 1,7 C 88 % 997,2 hPa 0,3 mm 3,2 km/h (1 Bft) O-SO 112 0 min 0 UV-I 0 W/m 8,0 km/h (2 Bft)
06.01.2011 05:00 1,7 C 88 % 997,2 hPa 0,3 mm 1,6 km/h (1 Bft) O 90 0 min 0 UV-I 0 W/m 4,8 km/h (1 Bft)
06.01.2011 05:10 1,7 C 88 % 997,1 hPa 0,5 mm 1,6 km/h (1 Bft) O-SO 112 0 min 0 UV-I 0 W/m 6,4 km/h (2 Bft)
06.01.2011 05:20 1,7 C 89 % 997,1 hPa 0,5 mm 1,6 km/h (1 Bft) O 90 0 min 0 UV-I 0 W/m 8,0 km/h (2 Bft)
06.01.2011 05:30 1,6 C 89 % 997,0 hPa 0,3 mm 1,6 km/h (1 Bft) SO 135 0 min 0 UV-I 0 W/m 6,4 km/h (2 Bft)
06.01.2011 05:40 1,6 C 89 % 996,8 hPa 0,3 mm 1,6 km/h (1 Bft) O-SO 112 0 min 0 UV-I 0 W/m 6,4 km/h (2 Bft)
06.01.2011 05:50 1,7 C 90 % 996,8 hPa 0,3 mm 1,6 km/h (1 Bft) O-SO 112 0 min 0 UV-I 0 W/m 9,7 km/h (2 Bft)
06.01.2011 06:00 1,7 C 90 % 996,6 hPa 0,3 mm 1,6 km/h (1 Bft) O-SO 112 0 min 0 UV-I 0 W/m 8,0 km/h (2 Bft)
06.01.2011 06:10 1,7 C 90 % 996,6 hPa 0,0 mm 1,6 km/h (1 Bft) SO 135 0 min 0 UV-I 0 W/m 8,0 km/h (2 Bft)
06.01.2011 06:20 1,7 C 90 % 996,6 hPa 0,3 mm 1,6 km/h (1 Bft) O-SO 112 0 min 0 UV-I 0 W/m 6,4 km/h (2 Bft)
06.01.2011 06:30 1,7 C 90 % 996,4 hPa 0,0 mm 1,6 km/h (1 Bft) S-SO 157 0 min 0 UV-I 0 W/m 8,0 km/h (2 Bft)
06.01.2011 06:40 1,7 C 90 % 996,4 hPa 0,3 mm 0,0 km/h (0 Bft) S 180 0 min 0 UV-I 0 W/m 3,2 km/h (1 Bft)
06.01.2011 06:50 1,7 C 90 % 996,4 hPa 0,0 mm 0,0 km/h (0 Bft) S 180 0 min 0 UV-I 0 W/m 3,2 km/h (1 Bft)
06.01.2011 07:00 1,6 C 90 % 996,4 hPa 0,0 mm 0,0 km/h (0 Bft) SO 135 0 min 0 UV-I 0 W/m 6,4 km/h (2 Bft)
06.01.2011 07:10 1,6 C 91 % 996,4 hPa 0,0 mm 1,6 km/h (1 Bft) SO 135 0 min 0 UV-I 0 W/m 4,8 km/h (1 Bft)
06.01.2011 07:20 1,6 C 91 % 996,6 hPa 0,3 mm 1,6 km/h (1 Bft) O-SO 112 0 min 0 UV-I 0 W/m 6,4 km/h (2 Bft)
06.01.2011 07:30 1,6 C 91 % 996,5 hPa 0,0 mm 1,6 km/h (1 Bft) O-SO 112 0 min 0 UV-I 0 W/m 6,4 km/h (2 Bft)
06.01.2011 07:40 1,6 C 91 % 996,6 hPa 0,0 mm 1,6 km/h (1 Bft) O-SO 112 0 min 0 UV-I 0 W/m 6,4 km/h (2 Bft)
06.01.2011 07:50 1,6 C 91 % 996,7 hPa 0,0 mm 1,6 km/h (1 Bft) O-SO 112 0 min 0 UV-I 0 W/m 6,4 km/h (2 Bft)
06.01.2011 08:00 1,7 C 91 % 996,9 hPa 0,3 mm 0,9 km/h (0 Bft) O 84 0 min 0 UV-I 0 W/m 4,8 km/h (1 Bft)
06.01.2011 08:10 1,7 C 91 % 997,0 hPa 0,0 mm 1,0 km/h (0 Bft) O 91 0 min 0 UV-I 0 W/m 6,4 km/h (2 Bft)
06.01.2011 08:20 1,7 C 91 % 997,1 hPa 0,0 mm 0,0 km/h (0 Bft) O 90 0 min 0 UV-I 0 W/m 3,2 km/h (1 Bft)
06.01.2011 08:30 1,8 C 92 % 997,2 hPa 0,0 mm 0,0 km/h (0 Bft) O 90 0 min 0 UV-I 0 W/m 3,2 km/h (1 Bft)
06.01.2011 08:40 1,8 C 92 % 997,2 hPa 0,0 mm 0,0 km/h (0 Bft) O 90 0 min 0 UV-I 0 W/m 1,6 km/h (1 Bft)
06.01.2011 08:50 1,8 C 92 % 997,2 hPa 0,0 mm 0,0 km/h (0 Bft) O 90 0 min 0 UV-I 0 W/m 1,6 km/h (1 Bft)
06.01.2011 09:00 1,9 C 92 % 997,4 hPa 0,0 mm 0,0 km/h (0 Bft) O 90 0 min 0 UV-I 0 W/m 1,6 km/h (1 Bft)
06.01.2011 09:10 1,9 C 92 % 997,5 hPa 0,0 mm 0,0 km/h (0 Bft) O 90 0 min 0 UV-I 0 W/m 3,2 km/h (1 Bft)
06.01.2011 09:20 1,9 C 92 % 997,5 hPa 0,0 mm 0,0 km/h (0 Bft) O 90 0 min 0 UV-I 5 W/m 3,2 km/h (1 Bft)
06.01.2011 09:30 1,9 C 92 % 997,5 hPa 0,0 mm 0,0 km/h (0 Bft) O 90 0 min 0 UV-I 12 W/m 3,2 km/h (1 Bft)
06.01.2011 09:40 1,9 C 92 % 997,7 hPa 0,0 mm 0,0 km/h (0 Bft) N 0 0 min 0 UV-I 26 W/m 0,0 km/h (0 Bft)
06.01.2011 09:50 1,9 C 92 % 997,7 hPa 0,0 mm 0,0 km/h (0 Bft) N 0 0 min 0 UV-I 30 W/m 0,0 km/h (0 Bft)
06.01.2011 10:00 2,0 C 92 % 997,7 hPa 0,0 mm 0,0 km/h (0 Bft) N 0 0 min 0 UV-I 28 W/m 0,0 km/h (0 Bft)
06.01.2011 10:10 2,1 C 92 % 997,8 hPa 0,0 mm 0,0 km/h (0 Bft) O 90 0 min 0 UV-I 33 W/m 1,6 km/h (1 Bft)
06.01.2011 10:20 2,2 C 92 % 997,9 hPa 0,0 mm 0,0 km/h (0 Bft) N 0 0 min 0 UV-I 25 W/m 0,0 km/h (0 Bft)
06.01.2011 10:30 2,4 C 93 % 997,9 hPa 0,0 mm 0,0 km/h (0 Bft) O 90 0 min 0 UV-I 23 W/m 4,8 km/h (1 Bft)
06.01.2011 10:40 2,7 C 93 % 998,0 hPa 0,3 mm 1,6 km/h (1 Bft) S 180 0 min 0 UV-I 40 W/m 6,4 km/h (2 Bft)
06.01.2011 10:50 2,9 C 93 % 997,9 hPa 0,0 mm 0,0 km/h (0 Bft) SW 225 0 min 0 UV-I 53 W/m 4,8 km/h (1 Bft)
06.01.2011 11:00 3,2 C 93 % 997,8 hPa 0,0 mm 0,0 km/h (0 Bft) SW 225 0 min 0 UV-I 74 W/m 3,2 km/h (1 Bft)
06.01.2011 11:10 3,5 C 93 % 997,8 hPa 0,0 mm 0,0 km/h (0 Bft) SW 225 0 min 1 UV-I 79 W/m 3,2 km/h (1 Bft)
06.01.2011 11:20 3,7 C 93 % 997,9 hPa 0,0 mm 0,0 km/h (0 Bft) SW 225 0 min 0 UV-I 74 W/m 3,2 km/h (1 Bft)
06.01.2011 11:30 3,9 C 93 % 998,0 hPa 0,0 mm 0,0 km/h (0 Bft) SW 225 0 min 1 UV-I 81 W/m 3,2 km/h (1 Bft)
06.01.2011 11:40 4,1 C 93 % 998,0 hPa 0,0 mm 0,0 km/h (0 Bft) SW 225 0 min 0 UV-I 69 W/m 4,8 km/h (1 Bft)
06.01.2011 11:50 4,3 C 93 % 997,9 hPa 0,0 mm 0,0 km/h (0 Bft) SW 225 0 min 0 UV-I 47 W/m 3,2 km/h (1 Bft)
06.01.2011 12:00 4,3 C 93 % 997,7 hPa 0,0 mm 1,6 km/h (1 Bft) SW 225 0 min 0 UV-I 53 W/m 6,4 km/h (2 Bft)
06.01.2011 12:10 4,4 C 93 % 997,8 hPa 0,0 mm 0,0 km/h (0 Bft) W-SW 247 0 min 0 UV-I 56 W/m 6,4 km/h (2 Bft)
06.01.2011 12:20 4,6 C 93 % 997,8 hPa 0,0 mm 0,0 km/h (0 Bft) S-SW 202 0 min 0 UV-I 56 W/m 4,8 km/h (1 Bft)
06.01.2011 12:30 4,6 C 93 % 997,7 hPa 0,0 mm 0,0 km/h (0 Bft) S-SW 202 0 min 0 UV-I 47 W/m 1,6 km/h (1 Bft)
06.01.2011 12:40 4,6 C 93 % 997,7 hPa 0,0 mm 0,0 km/h (0 Bft) S-SW 202 0 min 0 UV-I 53 W/m 3,2 km/h (1 Bft)
06.01.2011 12:50 4,5 C 93 % 997,5 hPa 0,0 mm 0,0 km/h (0 Bft) S-SW 202 0 min 0 UV-I 69 W/m 4,8 km/h (1 Bft)
06.01.2011 13:00 4,4 C 93 % 997,5 hPa 0,0 mm 0,0 km/h (0 Bft) S 180 0 min 0 UV-I 67 W/m 4,8 km/h (1 Bft)
06.01.2011 13:10 4,3 C 93 % 997,4 hPa 0,0 mm 1,6 km/h (1 Bft) S 180 0 min 0 UV-I 65 W/m 4,8 km/h (1 Bft)
06.01.2011 13:20 4,3 C 93 % 997,3 hPa 0,0 mm 0,0 km/h (0 Bft) S 180 0 min 0 UV-I 53 W/m 3,2 km/h (1 Bft)
06.01.2011 13:30 4,3 C 93 % 997,2 hPa 0,0 mm 0,0 km/h (0 Bft) S 180 0 min 0 UV-I 58 W/m 3,2 km/h (1 Bft)
06.01.2011 13:40 4,3 C 93 % 997,0 hPa 0,0 mm 0,0 km/h (0 Bft) S 180 0 min 0 UV-I 58 W/m 3,2 km/h (1 Bft)
06.01.2011 13:50 4,3 C 93 % 996,9 hPa 0,0 mm 0,0 km/h (0 Bft) S 180 0 min 0 UV-I 60 W/m 4,8 km/h (1 Bft)
06.01.2011 14:00 4,3 C 93 % 996,9 hPa 0,0 mm 0,0 km/h (0 Bft) S 180 0 min 0 UV-I 49 W/m 4,8 km/h (1 Bft)
06.01.2011 14:10 4,3 C 93 % 996,8 hPa 0,0 mm 0,0 km/h (0 Bft) S 180 0 min 0 UV-I 33 W/m 4,8 km/h (1 Bft)
06.01.2011 14:20 4,3 C 93 % 996,6 hPa 0,0 mm 0,0 km/h (0 Bft) S 180 0 min 0 UV-I 32 W/m 6,4 km/h (2 Bft)
06.01.2011 14:30 4,3 C 93 % 996,5 hPa 0,0 mm 0,0 km/h (0 Bft) S-SO 157 0 min 0 UV-I 30 W/m 6,4 km/h (2 Bft)
06.01.2011 14:40 4,3 C 93 % 996,3 hPa 0,0 mm 1,6 km/h (1 Bft) S-SO 157 0 min 0 UV-I 32 W/m 14,5 km/h (3 Bft)
06.01.2011 14:50 4,3 C 93 % 996,2 hPa 0,0 mm 1,6 km/h (1 Bft) S-SO 157 0 min 0 UV-I 28 W/m 8,0 km/h (2 Bft)
06.01.2011 15:00 4,3 C 93 % 996,2 hPa 0,0 mm 1,6 km/h (1 Bft) S-SO 157 0 min 0 UV-I 23 W/m 6,4 km/h (2 Bft)
06.01.2011 15:10 4,3 C 93 % 996,0 hPa 0,3 mm 3,2 km/h (1 Bft) O-SO 112 0 min 0 UV-I 21 W/m 8,0 km/h (2 Bft)
06.01.2011 15:20 4,3 C 93 % 995,9 hPa 0,0 mm 1,6 km/h (1 Bft) O-SO 112 0 min 0 UV-I 16 W/m 8,0 km/h (2 Bft)
06.01.2011 15:30 4,3 C 93 % 995,9 hPa 0,0 mm 1,6 km/h (1 Bft) O-SO 112 0 min 0 UV-I 12 W/m 8,0 km/h (2 Bft)
06.01.2011 15:40 4,2 C 93 % 995,8 hPa 0,0 mm 1,6 km/h (1 Bft) O-SO 112 0 min 0 UV-I 11 W/m 6,4 km/h (2 Bft)
06.01.2011 15:50 4,2 C 93 % 995,8 hPa 0,3 mm 1,6 km/h (1 Bft) O-SO 112 0 min 0 UV-I 9 W/m 6,4 km/h (2 Bft)
06.01.2011 16:00 4,2 C 93 % 995,8 hPa 0,3 mm 0,1 km/h (0 Bft) O-SO 118 0 min 0 UV-I 3 W/m 1,6 km/h (1 Bft)
06.01.2011 16:10 4,2 C 93 % 995,7 hPa 0,3 mm 0,0 km/h (0 Bft) O-SO 112 0 min 0 UV-I 0 W/m 1,6 km/h (1 Bft)
06.01.2011 16:20 4,1 C 93 % 995,6 hPa 0,3 mm 0,0 km/h (0 Bft) O-SO 112 0 min 0 UV-I 0 W/m 1,6 km/h (1 Bft)
06.01.2011 16:30 4,0 C 93 % 995,6 hPa 0,5 mm 0,0 km/h (0 Bft) O-SO 112 0 min 0 UV-I 0 W/m 3,2 km/h (1 Bft)
06.01.2011 16:40 3,9 C 93 % 995,5 hPa 0,0 mm 0,0 km/h (0 Bft) O-SO 112 0 min 0 UV-I 0 W/m 3,2 km/h (1 Bft)
06.01.2011 16:50 3,9 C 93 % 995,6 hPa 0,5 mm 0,0 km/h (0 Bft) O-SO 112 0 min 0 UV-I 0 W/m 4,8 km/h (1 Bft)
06.01.2011 17:00 3,8 C 93 % 995,5 hPa 0,3 mm 0,0 km/h (0 Bft) O-SO 112 0 min 0 UV-I 0 W/m 4,8 km/h (1 Bft)
06.01.2011 17:10 3,8 C 93 % 995,5 hPa 0,5 mm 0,0 km/h (0 Bft) O-SO 112 0 min 0 UV-I 0 W/m 3,2 km/h (1 Bft)
06.01.2011 17:20 3,8 C 93 % 995,4 hPa 0,3 mm 1,6 km/h (1 Bft) O-SO 112 0 min 0 UV-I 0 W/m 8,0 km/h (2 Bft)
06.01.2011 17:30 3,8 C 93 % 995,3 hPa 0,5 mm 1,6 km/h (1 Bft) SO 135 0 min 0 UV-I 0 W/m 6,4 km/h (2 Bft)
06.01.2011 17:40 3,9 C 93 % 995,2 hPa 0,3 mm 1,6 km/h (1 Bft) O 90 0 min 0 UV-I 0 W/m 4,8 km/h (1 Bft)
06.01.2011 17:50 3,9 C 93 % 995,0 hPa 0,5 mm 1,6 km/h (1 Bft) O-SO 112 0 min 0 UV-I 0 W/m 6,4 km/h (2 Bft)
06.01.2011 18:00 4,0 C 93 % 994,9 hPa 0,3 mm 0,0 km/h (0 Bft) SO 135 0 min 0 UV-I 0 W/m 4,8 km/h (1 Bft)
06.01.2011 18:10 4,1 C 93 % 994,9 hPa 0,0 mm 0,0 km/h (0 Bft) SO 135 0 min 0 UV-I 0 W/m 4,8 km/h (1 Bft)
06.01.2011 18:20 4,1 C 93 % 994,9 hPa 0,3 mm 0,0 km/h (0 Bft) SO 135 0 min 0 UV-I 0 W/m 6,4 km/h (2 Bft)
06.01.2011 18:30 4,2 C 94 % 994,8 hPa 0,3 mm 1,6 km/h (1 Bft) S-SW 202 0 min 0 UV-I 0 W/m 14,5 km/h (3 Bft)
06.01.2011 18:40 4,8 C 94 % 994,8 hPa 0,0 mm 3,2 km/h (1 Bft) S 180 0 min 0 UV-I 0 W/m 20,9 km/h (4 Bft)
06.01.2011 18:50 5,3 C 94 % 994,7 hPa 0,0 mm 1,6 km/h (1 Bft) S 180 0 min 0 UV-I 0 W/m 9,7 km/h (2 Bft)
06.01.2011 19:00 5,5 C 94 % 994,6 hPa 0,3 mm 1,6 km/h (1 Bft) SO 135 0 min 0 UV-I 0 W/m 9,7 km/h (2 Bft)
06.01.2011 19:10 5,6 C 94 % 994,4 hPa 0,3 mm 1,6 km/h (1 Bft) SO 135 0 min 0 UV-I 0 W/m 6,4 km/h (2 Bft)
06.01.2011 19:20 5,4 C 93 % 994,7 hPa 0,0 mm 1,6 km/h (1 Bft) SO 135 0 min 0 UV-I 0 W/m 6,4 km/h (2 Bft)
06.01.2011 19:30 5,2 C 93 % 994,6 hPa 0,0 mm 1,6 km/h (1 Bft) S-SO 157 0 min 0 UV-I 0 W/m 6,4 km/h (2 Bft)
06.01.2011 19:40 5,0 C 93 % 994,4 hPa 0,3 mm 1,6 km/h (1 Bft) S-SO 157 0 min 0 UV-I 0 W/m 9,7 km/h (2 Bft)
06.01.2011 19:50 4,8 C 93 % 994,4 hPa 0,0 mm 1,6 km/h (1 Bft) S-SO 157 0 min 0 UV-I 0 W/m 9,7 km/h (2 Bft)
06.01.2011 20:00 4,7 C 93 % 994,5 hPa 0,3 mm 3,2 km/h (1 Bft) SO 135 0 min 0 UV-I 0 W/m 11,3 km/h (2 Bft)
06.01.2011 20:10 4,6 C 93 % 994,5 hPa 0,5 mm 1,6 km/h (1 Bft) S-SW 202 0 min 0 UV-I 0 W/m 8,0 km/h (2 Bft)
06.01.2011 20:20 4,6 C 93 % 994,5 hPa 0,8 mm 0,0 km/h (0 Bft) SO 135 0 min 0 UV-I 0 W/m 4,8 km/h (1 Bft)
06.01.2011 20:30 4,5 C 93 % 994,4 hPa 0,3 mm 0,0 km/h (0 Bft) SO 135 0 min 0 UV-I 0 W/m 3,2 km/h (1 Bft)
06.01.2011 20:40 4,4 C 93 % 994,6 hPa 0,3 mm 0,0 km/h (0 Bft) SO 135 0 min 0 UV-I 0 W/m 1,6 km/h (1 Bft)
06.01.2011 20:50 4,4 C 94 % 994,6 hPa 0,3 mm 0,0 km/h (0 Bft) SO 138 0 min 0 UV-I 0 W/m 0,0 km/h (0 Bft)
06.01.2011 21:00 4,5 C 94 % 994,6 hPa 0,0 mm 0,9 km/h (0 Bft) S-SW 195 0 min 0 UV-I 0 W/m 6,4 km/h (2 Bft)
06.01.2011 21:10 5,1 C 94 % 994,6 hPa 0,0 mm 3,3 km/h (1 Bft) SW 234 0 min 0 UV-I 0 W/m 16,1 km/h (3 Bft)
06.01.2011 21:20 5,7 C 95 % 994,6 hPa 0,0 mm 2,6 km/h (1 Bft) SW 222 0 min 0 UV-I 0 W/m 8,0 km/h (2 Bft)
06.01.2011 21:30 6,0 C 94 % 994,6 hPa 0,0 mm 2,5 km/h (1 Bft) S-SW 203 0 min 0 UV-I 0 W/m 8,0 km/h (2 Bft)
06.01.2011 21:40 6,3 C 95 % 994,6 hPa 0,3 mm 2,7 km/h (1 Bft) SW 216 0 min 0 UV-I 0 W/m 9,7 km/h (2 Bft)
06.01.2011 21:50 6,4 C 94 % 994,7 hPa 0,0 mm 2,8 km/h (1 Bft) SW 233 0 min 0 UV-I 0 W/m 11,3 km/h (2 Bft)
06.01.2011 22:00 6,6 C 94 % 994,8 hPa 0,3 mm 3,5 km/h (1 Bft) SW 222 0 min 0 UV-I 0 W/m 11,3 km/h (2 Bft)
06.01.2011 22:10 6,6 C 94 % 994,7 hPa 0,0 mm 2,8 km/h (1 Bft) SW 236 0 min 0 UV-I 0 W/m 12,9 km/h (3 Bft)
06.01.2011 22:20 6,7 C 94 % 994,7 hPa 0,0 mm 3,2 km/h (1 Bft) W-SW 240 0 min 0 UV-I 0 W/m 17,7 km/h (3 Bft)
06.01.2011 22:30 6,8 C 94 % 994,7 hPa 0,0 mm 3,6 km/h (1 Bft) S-SW 207 0 min 0 UV-I 0 W/m 12,9 km/h (3 Bft)
06.01.2011 22:40 6,8 C 94 % 994,8 hPa 0,0 mm 3,7 km/h (1 Bft) SW 219 0 min 0 UV-I 0 W/m 11,3 km/h (2 Bft)
06.01.2011 22:50 6,9 C 94 % 994,9 hPa 0,0 mm 4,2 km/h (1 Bft) NO 49 0 min 0 UV-I 0 W/m 11,3 km/h (2 Bft)
06.01.2011 23:00 7,1 C 94 % 995,1 hPa 0,0 mm 6,2 km/h (2 Bft) SW 226 0 min 0 UV-I 0 W/m 16,1 km/h (3 Bft)
06.01.2011 23:10 7,2 C 95 % 995,3 hPa 0,0 mm 4,8 km/h (1 Bft) S-SW 202 0 min 0 UV-I 0 W/m 19,3 km/h (3 Bft)
06.01.2011 23:20 7,3 C 94 % 995,6 hPa 0,0 mm 6,4 km/h (2 Bft) SW 225 0 min 0 UV-I 0 W/m 19,3 km/h (3 Bft)
06.01.2011 23:30 7,4 C 94 % 995,7 hPa 0,0 mm 8,0 km/h (2 Bft) S-SW 202 0 min 0 UV-I 0 W/m 29,0 km/h (5 Bft)
06.01.2011 23:40 7,6 C 94 % 995,9 hPa 0,3 mm 8,0 km/h (2 Bft) SW 225 0 min 0 UV-I 0 W/m 20,9 km/h (4 Bft)
06.01.2011 23:50 7,6 C 94 % 996,3 hPa 0,0 mm 6,4 km/h (2 Bft) SW 225 0 min 0 UV-I 0 W/m 19,3 km/h (3 Bft)
_ Min-Zeit 00:00 00:00 19:10 - 06:40 - - - - - 09:40
Minimum _ -0,8 C 84 % 994,4 hPa - 0,0 km/h (0 Bft) - - - - - 0,0 km/h (0 Bft)
_ Max-Zeit 23:40 21:20 00:10 20:20 23:30 - - 00:00 11:10 11:30 23:30
Maximum _ 7,6 C 95 % 1001,6 hPa 0,8 mm 8,0 km/h
S-SW (2 Bft)
- - 0 min 1 UV-I 81 W/m 29,0 km/h
W-SW (5 Bft)
Durchschnitt _ 3,3 C 91 % 996,8 hPa #14,2 mm 1,7 km/h (1 Bft) O-SO - #0 min. 1 UV-I 41 W/m 7,8 km/h (2 Bft)